Time;durP1;ratioP1;P1;durP2;ratioP2;P2;SDS_P1;SDS_P2;PMS_P1;PMS_P2;Temp;Humidity;BMP_temperature;BMP_pressure;BME280_temperature;BME280_humidity;BME280_pressure;Samples;Min_cycle;Max_cycle;Signal;HPM_P1;HPM_P2
2022/06/14 00:01:09;;;;;;;3.20;1.90;;;;;;;12.53;100.00;99817.09;5196969;23;20704;-83
2022/06/14 00:03:39;;;;;;;4.03;2.07;;;;;;;12.55;100.00;99808.81;5040917;28;20208;-81
2022/06/14 00:06:17;;;;;;;2.47;1.70;;;;;;;12.72;100.00;99812.50;5049985;28;20259;-83
2022/06/14 00:08:44;;;;;;;2.63;1.73;;;;;;;12.68;100.00;99809.44;5056259;28;20178;-85
2022/06/14 00:11:21;;;;;;;3.63;1.80;;;;;;;12.70;100.00;99807.34;5055618;28;20215;-84
2022/06/14 00:13:49;;;;;;;3.27;1.90;;;;;;;12.67;100.00;99804.28;5055123;28;20182;-83
2022/06/14 00:16:17;;;;;;;2.30;1.90;;;;;;;12.69;100.00;99811.06;5049835;28;20215;-82
2022/06/14 00:18:43;;;;;;;3.50;1.90;;;;;;;12.70;100.00;99812.72;5046120;28;20203;-82
2022/06/14 00:21:10;;;;;;;2.70;1.80;;;;;;;12.71;100.00;99813.53;5050118;28;20496;-81
2022/06/14 00:23:37;;;;;;;2.90;1.90;;;;;;;12.72;100.00;99815.19;5051176;28;20252;-84
2022/06/14 00:26:05;;;;;;;3.93;1.80;;;;;;;12.76;100.00;99816.34;5053022;28;20187;-83
2022/06/14 00:28:33;;;;;;;3.40;2.00;;;;;;;12.83;100.00;99827.03;5049255;28;20187;-82
2022/06/14 00:31:07;;;;;;;4.03;1.97;;;;;;;13.01;100.00;99832.34;5049134;28;20198;-83
2022/06/14 00:33:33;;;;;;;2.43;1.70;;;;;;;13.00;100.00;99833.38;5033170;28;20176;-83
2022/06/14 00:36:03;;;;;;;2.03;1.77;;;;;;;12.99;100.00;99826.34;5031775;28;20714;-82
2022/06/14 00:38:30;;;;;;;3.10;2.00;;;;;;;12.98;100.00;99825.53;5027583;28;20211;-81
2022/06/14 00:40:58;;;;;;;3.07;2.00;;;;;;;12.99;100.00;99824.50;5020672;28;20190;-82
2022/06/14 00:43:27;;;;;;;3.20;2.03;;;;;;;12.97;100.00;99818.50;5019199;28;20186;-81
2022/06/14 00:46:37;;;;;;;4.10;1.70;;;;;;;13.02;100.00;99824.03;5015969;28;20192;-82
2022/06/14 00:49:10;;;;;;;3.53;1.90;;;;;;;13.20;100.00;99832.03;5009291;28;20252;-83
2022/06/14 00:51:43;;;;;;;1.70;1.60;;;;;;;13.17;100.00;99834.38;5011429;28;20212;-85
2022/06/14 00:54:15;;;;;;;2.67;1.83;;;;;;;13.23;100.00;99828.91;5015807;28;20204;-81
2022/06/14 00:56:55;;;;;;;5.73;2.00;;;;;;;13.27;100.00;99840.00;5023760;28;20208;-82
2022/06/14 00:59:27;;;;;;;2.30;2.10;;;;;;;13.23;100.00;99815.44;5027056;28;20201;-81
2022/06/14 01:01:58;;;;;;;2.73;1.80;;;;;;;13.16;100.00;99809.34;5018682;28;20231;-81
2022/06/14 01:04:28;;;;;;;3.90;1.93;;;;;;;13.14;100.00;99830.28;4997628;28;20204;-82
2022/06/14 01:07:01;;;;;;;2.37;2.10;;;;;;;13.31;100.00;99830.41;5020579;28;20246;-82
2022/06/14 01:09:37;;;;;;;2.00;1.80;;;;;;;13.18;100.00;99838.72;5006691;28;20187;-81
2022/06/14 01:12:10;;;;;;;4.67;2.30;;;;;;;13.12;100.00;99837.75;4999585;28;20180;-81
2022/06/14 01:15:08;;;;;;;4.47;2.40;;;;;;;13.12;100.00;99832.38;5016571;28;20270;-81
2022/06/14 01:17:41;;;;;;;2.97;1.97;;;;;;;13.11;100.00;99838.00;5001541;28;20195;-81
2022/06/14 01:20:11;;;;;;;2.20;2.00;;;;;;;13.08;100.00;99833.88;4997886;28;20202;-81
2022/06/14 01:22:38;;;;;;;3.60;2.33;;;;;;;13.06;100.00;99838.66;5013626;28;20212;-82
2022/06/14 01:25:05;;;;;;;2.30;2.10;;;;;;;13.06;100.00;99832.47;4995842;28;20179;-82
2022/06/14 01:27:34;;;;;;;3.00;2.10;;;;;;;13.04;100.00;99831.88;5012967;28;20198;-83
2022/06/14 01:30:14;;;;;;;2.83;2.00;;;;;;;13.04;100.00;99832.69;4995703;28;20288;-81
2022/06/14 01:32:48;;;;;;;4.43;2.10;;;;;;;13.04;100.00;99831.88;4995821;28;20235;-82
2022/06/14 01:35:18;;;;;;;2.43;2.23;;;;;;;13.01;100.00;99832.34;5013361;28;20192;-83
2022/06/14 01:37:49;;;;;;;2.87;2.10;;;;;;;13.00;100.00;99828.00;4995904;28;20267;-83
2022/06/14 01:40:16;;;;;;;2.47;2.23;;;;;;;12.98;100.00;99828.22;4995389;28;20212;-80
2022/06/14 01:46:05;;;;;;;3.33;1.97;;;;;;;12.96;100.00;99824.13;5009815;23;20183;-80
2022/06/14 01:54:13;;;;;;;3.33;2.27;;;;;;;12.87;100.00;99836.28;5135351;23;20231;-82
2022/06/14 01:57:08;;;;;;;2.77;2.10;;;;;;;12.87;100.00;99838.97;4944661;29;20198;-82
2022/06/14 01:59:42;;;;;;;2.90;2.13;;;;;;;12.80;100.00;99842.56;4954338;29;20252;-82
2022/06/14 02:02:29;;;;;;;2.70;2.10;;;;;;;12.79;100.00;99846.28;5011486;28;20218;-81
2022/06/14 02:05:19;;;;;;;3.80;2.27;;;;;;;12.74;100.00;99845.31;5032873;28;20189;-82
2022/06/14 02:07:55;;;;;;;3.63;2.27;;;;;;;12.73;100.00;99855.28;5030287;28;20213;-82
2022/06/14 02:10:34;;;;;;;4.00;2.43;;;;;;;12.72;100.00;99852.81;5046340;28;20166;-82
2022/06/14 02:13:24;;;;;;;2.97;2.03;;;;;;;12.67;100.00;99850.81;5068655;28;20236;-82
2022/06/14 02:16:10;;;;;;;3.37;2.03;;;;;;;12.69;100.00;99856.75;5030693;28;20200;-84
2022/06/14 02:18:40;;;;;;;4.20;2.20;;;;;;;12.66;100.00;99848.34;5031149;28;20173;-86
2022/06/14 02:21:13;;;;;;;3.40;2.33;;;;;;;12.65;100.00;99857.44;5038369;28;20181;-82
2022/06/14 02:23:52;;;;;;;2.50;2.17;;;;;;;12.64;100.00;99851.28;5073242;28;20193;-83
2022/06/14 02:26:33;;;;;;;2.50;2.30;;;;;;;12.61;100.00;99853.56;5069402;28;20184;-81
2022/06/14 02:29:10;;;;;;;3.27;2.60;;;;;;;12.59;100.00;99855.69;5052157;28;20198;-81
2022/06/14 02:31:41;;;;;;;3.30;2.33;;;;;;;12.58;100.00;99854.88;5073368;28;20203;-83
2022/06/14 02:34:29;;;;;;;3.73;2.70;;;;;;;12.62;100.00;99856.03;5089917;28;20187;-82
2022/06/14 02:37:05;;;;;;;3.30;2.30;;;;;;;12.61;100.00;99854.41;5072097;28;20214;-84
2022/06/14 02:39:36;;;;;;;2.70;2.50;;;;;;;12.61;100.00;99859.78;5072122;28;20196;-84
2022/06/14 02:42:12;;;;;;;4.10;2.40;;;;;;;12.61;100.00;99869.69;5054251;28;20195;-84
2022/06/14 02:44:46;;;;;;;3.90;2.17;;;;;;;12.60;100.00;99865.38;5089273;28;20183;-83
2022/06/14 02:47:25;;;;;;;3.80;2.20;;;;;;;12.59;100.00;99864.56;5087456;28;20166;-82
2022/06/14 02:49:57;;;;;;;3.83;2.50;;;;;;;12.60;100.00;99870.75;5089289;28;20171;-83
2022/06/14 02:52:55;;;;;;;4.00;2.47;;;;;;;12.61;100.00;99872.41;5073164;28;20173;-82
2022/06/14 02:55:28;;;;;;;3.77;2.23;;;;;;;12.62;100.00;99869.50;5052313;28;20225;-84
2022/06/14 02:58:36;;;;;;;2.30;2.10;;;;;;;12.69;100.00;99867.53;5088610;28;20184;-85
2022/06/14 03:01:15;;;;;;;3.23;2.40;;;;;;;12.66;100.00;99876.03;4971589;28;20795;-84
2022/06/14 03:03:47;;;;;;;3.77;2.73;;;;;;;12.68;100.00;99871.28;5080790;28;20227;-84
2022/06/14 03:06:22;;;;;;;4.33;2.30;;;;;;;12.71;100.00;99886.94;5064645;28;20179;-84
2022/06/14 03:08:54;;;;;;;2.63;2.30;;;;;;;12.71;100.00;99886.94;5050424;28;20210;-84
2022/06/14 03:11:46;;;;;;;2.50;2.30;;;;;;;12.71;100.00;99894.19;5066511;28;20202;-84
2022/06/14 03:14:40;;;;;;;2.80;2.40;;;;;;;12.71;100.00;99892.31;5078320;28;20175;-85
2022/06/14 03:17:25;;;;;;;3.30;2.33;;;;;;;12.66;100.00;99897.56;5070259;28;20187;-86
2022/06/14 03:20:09;;;;;;;3.10;2.43;;;;;;;12.62;100.00;99900.91;5070712;28;20203;-85
2022/06/14 03:22:53;;;;;;;3.57;2.50;;;;;;;12.58;100.00;99897.88;5074888;28;20173;-83
2022/06/14 03:25:26;;;;;;;3.07;2.40;;;;;;;12.62;100.00;99903.59;5078888;28;20178;-84
2022/06/14 03:28:01;;;;;;;3.67;2.40;;;;;;;12.67;100.00;99901.06;5096189;28;20172;-83
2022/06/14 03:30:42;;;;;;;2.60;2.40;;;;;;;12.67;100.00;99914.50;5079399;28;20200;-84
2022/06/14 03:33:45;;;;;;;3.00;2.30;;;;;;;12.68;100.00;99908.09;5077309;28;20203;-85
2022/06/14 03:36:12;;;;;;;2.60;2.13;;;;;;;12.63;100.00;99913.31;5042995;28;20205;-84
2022/06/14 03:38:54;;;;;;;2.97;2.30;;;;;;;12.61;100.00;99915.41;5097420;28;20193;-84
2022/06/14 03:41:24;;;;;;;5.47;2.43;;;;;;;12.61;100.00;99912.72;5098209;28;20188;-82
2022/06/14 03:43:52;;;;;;;3.80;2.17;;;;;;;12.63;100.00;99919.53;5080396;28;20182;-86
2022/06/14 03:46:22;;;;;;;3.10;2.27;;;;;;;12.61;100.00;99923.47;5097819;28;20204;-87
2022/06/14 03:48:56;;;;;;;5.17;2.53;;;;;;;12.58;100.00;99918.53;5095461;28;20191;-85
2022/06/14 03:51:29;;;;;;;4.03;2.50;;;;;;;12.58;100.00;99921.22;5076979;28;20405;-81
2022/06/14 03:54:18;;;;;;;4.90;2.43;;;;;;;12.59;100.00;99921.03;5073666;28;20233;-84
2022/06/14 03:57:09;;;;;;;4.80;2.47;;;;;;;12.61;100.00;99926.97;5090204;28;20182;-85
2022/06/14 03:59:50;;;;;;;3.13;2.60;;;;;;;12.61;100.00;99924.28;5091061;28;20213;-85
2022/06/14 04:02:52;;;;;;;3.27;2.50;;;;;;;12.69;100.00;99918.59;5091688;28;20175;-85
2022/06/14 04:05:31;;;;;;;4.80;2.80;;;;;;;12.71;100.00;99923.75;5076855;28;20201;-85
2022/06/14 04:08:19;;;;;;;4.10;2.47;;;;;;;12.76;100.00;99915.84;5069428;28;20214;-85
2022/06/14 04:11:43;;;;;;;5.50;2.80;;;;;;;12.82;100.00;99923.00;5052639;28;20211;-85
2022/06/14 04:14:30;;;;;;;2.90;2.30;;;;;;;12.87;100.00;99922.31;4998078;28;20196;-85
2022/06/14 04:17:19;;;;;;;2.40;2.20;;;;;;;13.00;100.00;99924.81;5007606;28;20178;-84
2022/06/14 04:20:07;;;;;;;3.50;2.60;;;;;;;13.76;100.00;99927.63;5053818;28;20229;-84
2022/06/14 04:22:55;;;;;;;3.67;2.20;;;;;;;14.81;100.00;99922.94;5087645;28;20205;-83
2022/06/14 04:25:30;;;;;;;3.33;2.20;;;;;;;15.80;100.00;99932.28;5078351;28;20190;-83
2022/06/14 04:28:08;;;;;;;2.33;2.00;;;;;;;16.63;100.00;99931.34;5073752;28;20647;-85
2022/06/14 04:31:03;;;;;;;2.73;1.80;;;;;;;18.22;100.00;99962.38;5073056;28;20576;-85
2022/06/14 04:33:46;;;;;;;3.20;2.00;;;;;;;19.56;85.23;99931.69;5046373;28;20228;-86
2022/06/14 04:36:47;;;;;;;3.17;1.93;;;;;;;20.25;72.80;99937.34;5073027;28;20204;-83
2022/06/14 04:39:34;;;;;;;2.60;2.30;;;;;;;19.94;74.47;99933.88;5054673;28;20201;-84
2022/06/14 04:42:08;;;;;;;3.63;2.20;;;;;;;19.25;78.92;99934.38;5055703;28;20193;-84
2022/06/14 04:44:50;;;;;;;4.27;2.00;;;;;;;18.93;82.76;99936.47;5070957;28;20673;-86
2022/06/14 04:47:25;;;;;;;2.93;1.97;;;;;;;18.44;86.92;99946.78;5057047;28;20200;-88
2022/06/14 04:50:04;;;;;;;3.70;2.10;;;;;;;17.97;94.59;99944.88;5057108;28;20211;-88
2022/06/14 04:52:42;;;;;;;3.07;2.10;;;;;;;17.57;95.22;99939.91;5040610;28;20223;-89
2022/06/14 04:55:13;;;;;;;3.33;2.30;;;;;;;17.58;96.33;99944.31;5023949;28;20772;-89
2022/06/14 04:57:44;;;;;;;3.97;2.10;;;;;;;17.50;98.12;99941.19;5007659;28;20660;-89
2022/06/14 05:00:17;;;;;;;2.87;2.00;;;;;;;17.17;97.80;99939.50;5036916;28;20235;-86
2022/06/14 05:02:49;;;;;;;3.77;2.30;;;;;;;17.33;92.78;99940.50;5037143;28;20260;-86
2022/06/14 05:05:19;;;;;;;3.37;2.00;;;;;;;17.54;91.36;99936.91;5003636;28;20221;-88
2022/06/14 05:07:50;;;;;;;4.80;2.20;;;;;;;17.58;89.20;99940.75;5031274;28;20205;-87
2022/06/14 05:10:20;;;;;;;3.00;1.97;;;;;;;17.59;89.08;99939.66;5039581;28;20252;-84
2022/06/14 05:12:52;;;;;;;4.93;2.00;;;;;;;17.64;86.87;99941.63;5021376;28;20288;-85
2022/06/14 05:16:15;;;;;;;3.77;1.90;;;;;;;17.58;85.69;99940.75;5057011;23;20218;-82
2022/06/14 05:19:26;;;;;;;2.80;2.33;;;;;;;17.61;83.67;99945.66;5054729;23;20239;-82
2022/06/14 05:23:27;;;;;;;4.60;2.07;;;;;;;17.63;80.36;99938.09;5124082;23;20294;-83
2022/06/14 05:27:10;;;;;;;4.10;2.10;;;;;;;17.60;84.15;99941.31;5293537;23;20221;-84
2022/06/14 05:31:20;;;;;;;5.33;2.27;;;;;;;17.85;83.89;99940.72;5095432;23;20225;-87
2022/06/14 05:34:01;;;;;;;4.57;1.93;;;;;;;18.06;77.91;99938.97;5007303;28;20199;-91
2022/06/14 05:36:36;;;;;;;2.70;2.10;;;;;;;18.21;77.50;99945.28;4969105;28;20187;-93
2022/06/14 05:39:45;;;;;;;4.40;1.97;;;;;;;18.26;78.60;99934.47;4998672;28;20193;-96
2022/06/14 05:42:16;;;;;;;4.40;2.03;;;;;;;18.41;77.41;99947.31;4989101;28;20191;-92
2022/06/14 05:44:48;;;;;;;4.20;2.17;;;;;;;18.40;75.06;99948.38;4981068;28;20195;-92
2022/06/14 05:47:31;;;;;;;3.87;2.07;;;;;;;18.57;74.26;99949.03;4966323;28;20195;-93
2022/06/14 05:50:26;;;;;;;4.07;2.10;;;;;;;18.58;72.90;99949.88;5004907;28;20187;-87
2022/06/14 05:53:34;;;;;;;4.30;2.30;;;;;;;18.51;72.94;99952.81;5012115;28;20507;-90
2022/06/14 05:56:33;;;;;;;3.97;2.10;;;;;;;18.57;75.00;99953.69;5013191;28;20183;-94
2022/06/14 05:59:31;;;;;;;3.80;1.80;;;;;;;18.61;76.31;99962.94;4974501;28;20196;-95
2022/06/14 06:02:10;;;;;;;3.83;2.13;;;;;;;18.76;73.65;99954.81;4994874;28;20627;-93
2022/06/14 06:04:47;;;;;;;4.23;2.00;;;;;;;18.91;72.10;99955.72;4962680;28;20175;-94
2022/06/14 06:07:23;;;;;;;4.83;2.00;;;;;;;18.96;71.64;99959.53;4973745;28;20192;-94
2022/06/14 06:10:14;;;;;;;2.83;2.10;;;;;;;19.24;69.28;99953.63;4963721;28;20239;-96
2022/06/14 06:12:45;;;;;;;4.53;2.00;;;;;;;19.28;71.89;99952.84;4983979;28;20238;-94
2022/06/14 06:15:20;;;;;;;3.33;2.13;;;;;;;19.50;70.47;99954.53;4967200;28;20187;-91
2022/06/14 06:17:58;;;;;;;4.07;2.07;;;;;;;19.35;66.03;99958.84;4970206;28;20394;-95
2022/06/14 06:20:55;;;;;;;3.97;2.00;;;;;;;19.00;66.43;99964.16;4967809;28;20362;-92
2022/06/14 06:23:31;;;;;;;4.77;2.23;;;;;;;19.17;66.22;99956.63;5021988;28;20199;-91
2022/06/14 06:26:14;;;;;;;3.83;1.90;;;;;;;19.00;66.42;99979.63;5000894;28;20195;-94
2022/06/14 06:28:49;;;;;;;3.20;1.90;;;;;;;19.34;69.45;99970.78;4984071;28;20188;-96
2022/06/14 06:31:23;;;;;;;3.53;2.27;;;;;;;19.54;65.75;99961.88;4963799;28;20617;-96
2022/06/14 06:33:53;;;;;;;3.77;1.90;;;;;;;19.49;64.17;99966.50;4963469;28;20180;-93
2022/06/14 06:36:31;;;;;;;5.07;2.13;;;;;;;19.59;64.04;99967.31;4947422;28;20192;-95
2022/06/14 06:39:19;;;;;;;3.17;2.00;;;;;;;19.96;63.63;99972.50;4979837;28;20791;-94
2022/06/14 06:54:18;;;;;;;4.77;2.20;;;;;;;20.52;58.16;99978.69;4999518;28;20193;-96
2022/06/14 06:56:46;;;;;;;5.77;2.30;;;;;;;20.39;56.84;99978.47;4998734;28;20272;-92
2022/06/14 06:59:25;;;;;;;4.03;1.80;;;;;;;20.29;55.69;99982.00;4998417;28;20200;-93
2022/06/14 07:01:57;;;;;;;4.27;1.83;;;;;;;20.28;56.37;99984.97;4989211;28;20233;-93
2022/06/14 07:07:22;;;;;;;4.93;2.27;;;;;;;20.69;56.22;99977.53;4979458;28;20196;-94
2022/06/14 07:09:59;;;;;;;4.80;1.90;;;;;;;20.77;57.33;99979.69;4969352;28;20189;-95
2022/06/14 07:12:55;;;;;;;3.93;2.00;;;;;;;21.21;55.88;99986.06;4984394;28;20577;-94
2022/06/14 07:15:35;;;;;;;5.63;1.90;;;;;;;21.28;54.15;99985.75;4986985;28;20205;-91
2022/06/14 07:18:14;;;;;;;2.60;1.80;;;;;;;21.37;53.02;99978.63;4970458;28;20198;-90
2022/06/14 07:20:55;;;;;;;3.83;2.10;;;;;;;21.48;53.09;99986.44;5003811;28;20209;-92
2022/06/14 07:23:54;;;;;;;4.30;1.90;;;;;;;21.44;54.79;99981.84;4970785;28;20204;-95
2022/06/14 07:26:34;;;;;;;3.13;2.20;;;;;;;21.24;54.63;99992.84;4988527;28;20189;-92
2022/06/14 07:29:18;;;;;;;2.93;1.90;;;;;;;21.29;56.34;99982.75;4970734;28;20193;-96
2022/06/14 07:32:04;;;;;;;3.83;2.37;;;;;;;20.91;55.07;99989.72;4986660;28;20197;-94
2022/06/14 07:34:31;;;;;;;6.43;2.33;;;;;;;20.48;56.00;99976.81;4971333;28;20199;-93
2022/06/14 07:37:14;;;;;;;4.33;2.10;;;;;;;20.40;57.09;99986.34;5001662;28;20231;-94
2022/06/14 07:39:45;;;;;;;4.10;2.53;;;;;;;20.31;56.25;99979.81;5002153;28;20224;-96
2022/06/14 07:42:55;;;;;;;3.13;2.20;;;;;;;20.33;58.33;99980.38;4984899;28;20241;-93
2022/06/14 07:45:32;;;;;;;3.90;2.03;;;;;;;20.79;57.23;99978.34;5002068;28;20211;-94
2022/06/14 07:48:08;;;;;;;4.03;2.10;;;;;;;20.80;56.52;99973.72;4986251;28;20284;-92
2022/06/14 07:50:50;;;;;;;3.00;1.97;;;;;;;20.92;58.53;99977.72;4986045;28;20595;-91
2022/06/14 07:53:47;;;;;;;3.63;2.07;;;;;;;20.91;60.98;99976.09;4968899;28;20201;-94
2022/06/14 07:56:18;;;;;;;2.53;2.00;;;;;;;21.41;58.02;99966.06;4983093;28;20644;-92
2022/06/14 07:58:50;;;;;;;2.97;2.13;;;;;;;21.25;56.11;99973.50;4985456;28;20586;-92
2022/06/14 08:01:29;;;;;;;4.00;2.20;;;;;;;21.38;55.33;99975.59;4981755;28;20492;-94
2022/06/14 08:04:15;;;;;;;3.47;2.00;;;;;;;21.41;53.49;99972.34;4965721;28;20357;-93
2022/06/14 08:06:48;;;;;;;4.53;2.20;;;;;;;21.50;52.73;99969.81;4975130;28;20204;-95
2022/06/14 08:09:19;;;;;;;4.33;2.10;;;;;;;21.64;54.64;99968.09;4986972;28;20251;-96
2022/06/14 08:11:51;;;;;;;4.20;2.20;;;;;;;21.68;51.45;99971.88;5001789;28;20208;-96
2022/06/14 08:14:27;;;;;;;5.50;2.40;;;;;;;21.73;52.87;99960.94;4970414;28;20248;-94
2022/06/14 08:16:54;;;;;;;5.37;2.00;;;;;;;21.61;51.93;99965.09;5002323;28;20224;-95
2022/06/14 08:19:44;;;;;;;4.20;1.90;;;;;;;22.08;52.95;99961.72;4985353;28;20256;-95
2022/06/14 08:22:20;;;;;;;4.77;2.10;;;;;;;22.06;51.51;99967.50;4968453;28;20213;-93
2022/06/14 08:24:55;;;;;;;2.93;1.93;;;;;;;21.88;53.67;99966.22;4984805;28;20218;-93
2022/06/14 08:27:32;;;;;;;2.87;2.13;;;;;;;21.95;51.21;99958.59;4985864;28;20232;-93
2022/06/14 08:30:07;;;;;;;5.10;2.07;;;;;;;22.22;51.27;99959.97;4967821;28;20229;-94
2022/06/14 08:32:42;;;;;;;4.87;2.17;;;;;;;21.62;53.96;99958.53;4973212;28;20194;-96
2022/06/14 08:35:33;;;;;;;4.63;2.13;;;;;;;21.82;53.27;99963.84;4983341;28;20263;-96
2022/06/14 08:38:07;;;;;;;3.80;2.40;;;;;;;21.82;53.38;99956.50;4975216;28;20348;-95
2022/06/14 08:41:11;;;;;;;3.43;2.10;;;;;;;21.89;52.29;99951.50;4990432;28;20199;-94
2022/06/14 08:43:45;;;;;;;3.67;2.30;;;;;;;22.09;50.61;99947.81;5001390;28;20202;-96
2022/06/14 08:46:39;;;;;;;4.10;2.33;;;;;;;22.17;50.07;99941.72;4966346;28;20194;-93
2022/06/14 08:49:41;;;;;;;2.43;2.10;;;;;;;22.45;50.96;99947.44;4980418;28;20477;-95
2022/06/14 08:52:29;;;;;;;4.10;2.50;;;;;;;22.34;55.70;99949.47;4982653;28;20306;-92
2022/06/14 08:55:17;;;;;;;3.13;2.23;;;;;;;22.18;51.79;99946.09;4999737;28;20676;-96
2022/06/14 08:57:47;;;;;;;4.03;2.40;;;;;;;21.82;52.73;99937.41;4983771;28;20598;-96
2022/06/14 09:00:53;;;;;;;3.20;2.37;;;;;;;22.03;52.82;99938.03;4999802;28;20264;-93
2022/06/14 09:03:35;;;;;;;3.90;2.20;;;;;;;21.67;52.47;99936.69;4984798;28;20268;-96
2022/06/14 09:06:21;;;;;;;4.17;2.40;;;;;;;22.15;54.10;99934.94;4995745;28;20195;-93
2022/06/14 09:09:38;;;;;;;3.03;2.17;;;;;;;21.83;54.99;99938.22;4980481;28;20224;-95
2022/06/14 09:12:42;;;;;;;5.17;2.20;;;;;;;22.06;51.07;99940.22;4944304;28;20195;-94
2022/06/14 09:15:37;;;;;;;3.27;2.20;;;;;;;22.24;52.57;99935.94;4958972;28;20222;-94
2022/06/14 09:18:34;;;;;;;4.50;2.40;;;;;;;22.29;51.76;99939.44;4942539;28;20229;-96
2022/06/14 09:21:07;;;;;;;3.67;2.43;;;;;;;21.81;52.97;99926.75;4943855;28;20223;-95
2022/06/14 09:23:58;;;;;;;3.00;2.07;;;;;;;21.91;53.57;99919.31;4959528;28;20192;-94
2022/06/14 09:26:33;;;;;;;4.83;2.30;;;;;;;22.23;52.79;99926.94;4958602;28;20501;-96
2022/06/14 09:29:07;;;;;;;3.37;2.43;;;;;;;22.54;51.06;99918.38;4958870;28;20190;-91
2022/06/14 09:31:52;;;;;;;3.37;2.30;;;;;;;22.40;49.80;99921.81;4958331;28;20201;-95
2022/06/14 09:34:56;;;;;;;3.20;2.30;;;;;;;22.47;50.55;99926.13;4942318;28;20639;-94
2022/06/14 09:38:21;;;;;;;5.17;2.60;;;;;;;22.93;51.02;99921.75;4957425;28;20273;-94
2022/06/14 09:41:07;;;;;;;7.77;2.30;;;;;;;22.65;51.26;99919.91;4921284;28;20277;-93
2022/06/14 09:43:48;;;;;;;3.73;2.30;;;;;;;22.85;48.47;99916.97;4985416;28;20790;-92
2022/06/14 09:46:27;;;;;;;3.20;2.50;;;;;;;22.52;51.83;99915.97;4992516;28;20192;-95
2022/06/14 09:49:27;;;;;;;4.27;2.40;;;;;;;22.62;49.82;99915.84;4997718;28;20384;-90
2022/06/14 09:52:39;;;;;;;2.90;2.23;;;;;;;22.73;48.77;99900.16;4965192;28;20197;-88
2022/06/14 09:55:09;;;;;;;3.67;2.07;;;;;;;23.17;51.76;99903.38;4978385;28;20200;-91
2022/06/14 09:58:03;;;;;;;3.87;2.50;;;;;;;22.72;49.39;99904.81;4980988;28;20231;-94
2022/06/14 10:00:54;;;;;;;4.87;2.43;;;;;;;22.51;49.38;99911.59;4980820;28;20549;-89
2022/06/14 10:03:46;;;;;;;4.53;2.23;;;;;;;22.66;49.17;99897.78;4997033;28;20201;-90
2022/06/14 10:06:32;;;;;;;3.93;2.50;;;;;;;22.43;54.47;99892.34;4996701;28;20630;-95
2022/06/14 10:09:01;;;;;;;3.50;2.33;;;;;;;22.58;47.43;99898.44;5014566;28;20183;-93
2022/06/14 10:11:31;;;;;;;4.77;2.43;;;;;;;23.11;49.96;99882.69;4996956;28;20187;-92
2022/06/14 10:14:04;;;;;;;2.30;2.10;;;;;;;22.91;50.64;99876.72;4985876;28;20277;-90
2022/06/14 10:16:30;;;;;;;3.47;2.40;;;;;;;23.34;50.85;99875.50;5016569;28;20224;-90
2022/06/14 10:19:12;;;;;;;3.73;2.30;;;;;;;23.84;47.17;99871.16;5016509;28;20501;-91
2022/06/14 10:21:49;;;;;;;4.27;2.20;;;;;;;23.96;47.33;99884.34;5019625;28;20234;-90
2022/06/14 10:24:21;;;;;;;5.30;2.13;;;;;;;24.21;46.18;99878.44;4980806;28;20186;-93
2022/06/14 10:29:42;;;;;;;5.78;2.60;;;;;;;24.20;41.30;99865.84;4997525;28;20313;-93
2022/06/14 10:32:32;;;;;;;2.63;2.05;;;;;;;23.88;41.69;99872.19;5000669;28;20210;-93
2022/06/14 10:35:25;;;;;;;6.05;2.60;;;;;;;24.07;42.74;99875.66;4965227;28;20217;-92
2022/06/14 10:38:17;;;;;;;3.75;2.22;;;;;;;24.59;40.49;99870.00;5000830;28;20198;-91
2022/06/14 10:40:47;;;;;;;3.22;2.38;;;;;;;24.65;36.58;99864.09;4984129;28;20228;-93
2022/06/14 10:43:38;;;;;;;2.72;2.10;;;;;;;24.85;37.46;99863.66;5000692;28;20215;-93
2022/06/14 10:46:09;;;;;;;4.15;2.10;;;;;;;24.89;38.56;99855.66;5000030;28;20583;-87
2022/06/14 10:49:10;;;;;;;3.88;2.50;;;;;;;24.87;40.34;99858.69;4984613;28;20282;-91
2022/06/14 10:51:56;;;;;;;4.95;2.30;;;;;;;25.27;38.88;99851.47;5000357;28;20558;-91
2022/06/14 10:54:29;;;;;;;3.95;2.25;;;;;;;25.82;39.08;99851.19;5000487;28;20509;-89
2022/06/14 10:57:08;;;;;;;4.78;2.10;;;;;;;25.83;38.79;99844.59;4984259;28;20555;-92
2022/06/14 10:59:57;;;;;;;4.20;2.13;;;;;;;26.23;40.65;99840.75;4983568;28;20225;-90
2022/06/14 11:02:33;;;;;;;4.43;2.50;;;;;;;25.83;38.84;99833.63;4996893;28;20242;-90
2022/06/14 11:05:14;;;;;;;4.05;2.45;;;;;;;25.27;38.67;99835.03;5017043;28;20195;-91
2022/06/14 11:08:15;;;;;;;3.45;2.53;;;;;;;25.17;38.69;99838.00;4996796;28;20223;-91
2022/06/14 11:10:47;;;;;;;5.20;2.78;;;;;;;25.61;39.80;99847.38;4990961;28;20213;-92
2022/06/14 11:13:22;;;;;;;3.40;2.30;;;;;;;25.22;40.78;99839.81;4982159;28;20236;-93
2022/06/14 11:16:10;;;;;;;6.53;2.40;;;;;;;25.40;39.56;99831.41;5000482;28;20175;-93
2022/06/14 11:19:31;;;;;;;4.30;2.17;;;;;;;25.26;38.92;99827.91;4984449;28;20645;-91
2022/06/14 11:22:36;;;;;;;3.22;2.30;;;;;;;25.62;38.89;99840.75;4999857;28;20650;-94
2022/06/14 11:25:22;;;;;;;5.10;2.55;;;;;;;25.86;38.70;99835.72;4984321;28;20203;-93
2022/06/14 11:28:00;;;;;;;4.03;2.30;;;;;;;26.24;37.09;99836.06;4999760;28;20484;-94
2022/06/14 11:30:45;;;;;;;3.50;2.35;;;;;;;25.84;39.72;99833.31;4983815;28;20226;-94
2022/06/14 11:33:45;;;;;;;3.92;2.38;;;;;;;24.68;43.21;99827.06;4983293;28;20881;-92
2022/06/14 11:36:52;;;;;;;4.28;2.70;;;;;;;24.92;41.02;99833.91;4980426;28;20205;-91
2022/06/14 11:39:28;;;;;;;3.67;2.53;;;;;;;24.40;42.56;99824.34;4980007;28;20200;-92
2022/06/14 11:41:55;;;;;;;4.13;2.20;;;;;;;24.31;42.13;99814.44;4978039;28;20226;-89
2022/06/14 11:44:45;;;;;;;4.13;2.40;;;;;;;23.88;42.75;99822.94;4968705;28;20215;-92
2022/06/14 11:47:19;;;;;;;5.27;2.40;;;;;;;23.86;45.08;99843.47;4984166;28;20249;-91
2022/06/14 11:50:08;;;;;;;4.93;2.40;;;;;;;23.40;45.78;99827.84;4984472;28;20197;-91
2022/06/14 11:52:53;;;;;;;3.73;2.80;;;;;;;23.96;45.03;99824.13;4984334;28;20245;-94
2022/06/14 11:55:27;;;;;;;7.55;2.42;;;;;;;24.14;46.09;99825.97;4999953;28;20213;-92
2022/06/14 11:58:04;;;;;;;4.87;2.33;;;;;;;24.42;45.38;99824.88;4967901;28;20275;-92
2022/06/14 12:01:00;;;;;;;6.50;2.90;;;;;;;24.71;43.06;99820.97;4999940;28;20195;-93
2022/06/14 12:03:30;;;;;;;3.95;2.33;;;;;;;25.32;43.18;99820.38;4983634;28;20207;-93
2022/06/14 12:06:00;;;;;;;4.20;2.58;;;;;;;24.86;40.63;99816.00;4979178;28;20206;-92
2022/06/14 12:08:45;;;;;;;4.60;3.17;;;;;;;25.07;40.59;99820.97;4986685;28;20203;-91
2022/06/14 12:11:27;;;;;;;3.45;2.30;;;;;;;24.16;43.25;99820.19;4983016;28;20210;-92
2022/06/14 12:14:13;;;;;;;5.93;2.55;;;;;;;24.41;45.26;99811.47;4999489;28;20199;-92
2022/06/14 12:17:08;;;;;;;5.30;2.63;;;;;;;24.99;45.20;99806.09;5009314;28;20212;-92
2022/06/14 12:19:36;;;;;;;3.17;2.47;;;;;;;25.02;44.09;99810.13;4999101;28;20199;-92
2022/06/14 12:22:26;;;;;;;3.15;2.28;;;;;;;24.80;43.23;99808.16;4983737;28;20218;-93
2022/06/14 12:27:43;;;;;;;4.47;2.60;;;;;;;24.63;43.61;99797.03;5001392;28;20494;-93
2022/06/14 12:30:13;;;;;;;4.38;2.53;;;;;;;24.92;42.75;99795.53;4982010;28;20709;-91
2022/06/14 12:32:52;;;;;;;7.97;2.78;;;;;;;25.16;43.75;99800.72;4976449;28;20246;-95
2022/06/14 12:35:24;;;;;;;6.28;2.47;;;;;;;25.42;42.46;99795.44;4963446;28;20463;-93
2022/06/14 12:38:06;;;;;;;3.60;2.30;;;;;;;25.23;41.40;99806.59;4963329;28;20196;-91
2022/06/14 12:41:15;;;;;;;2.92;2.30;;;;;;;25.23;42.39;99783.84;4988384;28;20233;-94
2022/06/14 12:43:57;;;;;;;3.70;2.42;;;;;;;25.54;40.41;99786.63;4982129;28;20203;-91
2022/06/14 12:46:28;;;;;;;3.90;2.33;;;;;;;25.02;41.40;99783.53;5006522;28;20195;-93
2022/06/14 12:49:01;;;;;;;4.65;2.53;;;;;;;26.20;40.34;99780.94;4983559;28;20197;-94
2022/06/14 12:51:51;;;;;;;4.22;2.28;;;;;;;26.22;40.02;99788.91;4998297;28;20199;-93
2022/06/14 12:54:29;;;;;;;3.47;2.63;;;;;;;25.20;40.58;99787.19;4967407;28;20187;-91
2022/06/14 12:57:13;;;;;;;6.07;2.60;;;;;;;25.49;44.24;99781.25;4979765;28;20257;-94
2022/06/14 13:00:02;;;;;;;4.38;2.30;;;;;;;25.72;43.05;99780.94;4980283;28;20297;-95
2022/06/14 13:02:58;;;;;;;2.53;2.30;;;;;;;24.96;42.84;99782.84;4997203;28;20200;-93
2022/06/14 13:05:33;;;;;;;9.80;2.60;;;;;;;24.74;43.73;99773.75;4961219;28;20196;-94
2022/06/14 13:08:17;;;;;;;8.32;2.55;;;;;;;25.40;41.65;99773.81;4967973;28;20445;-94
2022/06/14 13:11:08;;;;;;;5.80;2.60;;;;;;;25.56;41.47;99771.50;4981704;28;20222;-92